Aviation Digital Data Service (ADDS)

Output produced by METARs form (0219 UTC 16 January 2019)
found at http://www.aviationweather.gov/metar/data/
 
UATE 160200Z 12009MPS 9999 BKN015 04/03 Q1005 R12/0///70 NOSIG RMK QFE752/1002
TAF UATE 152305Z 1600/1624 11010G16MPS 9999 OVC030 TX07/1610Z TN03/1603Z 
     BECMG 1602/1604 13012G18MPS
       
UATT 160200Z 12002MPS 8000 NSC M19/M21 Q1020 R13/820250 NOSIG RMK QFE745/0994
TAF UATT 152300Z 1600/1624 15005MPS 3000 BR SCT005 BKN010 TXM10/1611Z
TNM20/1603Z 
     TEMPO 1600/1605 0500 FZFG VV002 
     FM160600 15010MPS 9999 BKN020
       
UAAA 160200Z 16002MPS 3200 -SHRA BR BKN033CB OVC100 02/02 Q1020 R88/2/0150 NOSIG
TAF UAAA 152300Z 1600/1624 22005MPS 1500 -SHRA BR BKN011CB OVC100 TX01/1608Z
TNM02/1601Z 
     TEMPO 1600/1606 30006MPS 0300 SHRASN FZFG BKN003 OVC010CB 
     BECMG 1606/1607 06004MPS 3100 
     TEMPO 1606/1612 1200 BR BKN005 OVC010CB 
     TEMPO 1612/1624 0300 FZFG VV002
       
UACC 160200Z 03002MPS 360V060 8000 -SN BKN008 OVC030 M10/M11 Q1018 R04/3///50 NOSIG RMK QFE732/0976
TAF UACC 152300Z 1600/1624 03005MPS 5000 -SN OVC007 TXM07/1609Z TNM15/1624Z 
     TEMPO 1600/1605 1000 -SG BR OVC004 
     FM160500 02004MPS 9999 SCT007 BKN040 
     TEMPO 1605/1612 4000 -SN BR SCT005 BKN020 
     FM161200 VRB02MPS 3000 BR SCT004 
     TEMPO 1615/1624 0300 -SG FZFG VV001
       
UATG 160200Z 12010MPS 4800 BR BKN004 M03/M03 Q1011 R14/CLRD70 NOSIG RMK QBB120 QFE760/1014
TAF AMD UATG 160146Z 1601/1624 13010G15MPS 2000 BR BKN003 TX03/1610Z TNM03/1603Z

     BECMG 1604/1606 5000 BKN010 
     BECMG 1620/1622 12005MPS
       
UAKK 160200Z 08002MPS 9999 BKN009 M09/M10 Q1015 R05/920555 NOSIG RMK QFE714/0953
TAF UAKK 152300Z 1600/1624 05005MPS 9999 SCT007 BKN100 TXM05/1609Z TNM10/1623Z 
     TEMPO 1600/1605 2000 BR SCT004 
     BECMG 1605/1607 BKN010 OVC100 
     TEMPO 1612/1624 VRB02MPS 3000 -SN BR SCT004
       
UAUU 160200Z 18001MPS CAVOK M14/M16 Q1021 R15/390149 NOSIG RMK QFE749/0999
TAF COR UAUU 160030Z 1600/1609 VRB02MPS 0400 FZFG VV002 
     TEMPO 1600/1605 1500 BR BKN003 
     BECMG 1605/1606 6000 NSW SCT006
       
UASS 160200Z 12004MPS 1200 R26/1200 SN OVC013 M04/M04 Q1018 R26/499229 NOSIG RMK QFE745/0993
TAF UASS 160059Z 1602/1609 16006MPS 3000 -SN BKN011 OVC060 
     TEMPO 1602/1608 1000 SN BR BKN007
       
UAII 160200Z VRB01MPS 5000 -SHRA BR SCT005 OVC043CB 04/04 Q1020 R28/1///60 NOSIG RMK QBB160 QFE728/0970
TAF UAII 152300Z 1600/1624 30005MPS 4000 BR BKN010 OVC025CB TX06/1609Z
TN02/1601Z 
     TEMPO 1600/1606 23005MPS 1000 SHRA BKN007 OVC020CB 
     TEMPO 1606/1612 26004MPS SCT015 OVC030 
     TEMPO 1612/1621 05004MPS 0300 FG VV003
       
UARR 160200Z 15009MPS 9999 BKN006 OVC020 M06/M08 Q1013 R22/690438 NOSIG RMK QBB200 QFE756/1009
TAF UARR 152301Z 1600/1609 15010G15MPS 3000 BR BKN010 
     TEMPO 1600/1606 0400 -SN FZFG VV002 
     TEMPO 1606/1609 2000 BKN004
       
UASK 160200Z 29002MPS 9999 BKN048 OVC083 M04/M07 Q1017 R12/820250 NOSIG RMK QFE737/0983
TAF UASK 152304Z 1600/1609 14007G12MPS 3000 -SHSN SCT007 BKN020CB OVC100 
     TEMPO 1600/1606 19010G15MPS 0300 +SHSN BLSN BKN003 OVC012CB
       
UAKD 160200Z 29002MPS 6000 -SN OVC010 M05/M05 Q1018 R22/810060 NOSIG RMK QFE730/0973
TAF UAKD 152300Z 1600/1609 VRB02MPS 3000 -SN BR BKN005 OVC010 
     TEMPO 1600/1606 0500 -SG FZFG VV002 
     FM160600 VRB02MPS 9999 SCT007 BKN010